Time;durP1;ratioP1;P1;durP2;ratioP2;P2;SDS_P1;SDS_P2;PMS_P1;PMS_P2;Temp;Humidity;BMP_temperature;BMP_pressure;BME280_temperature;BME280_humidity;BME280_pressure;Samples;Min_cycle;Max_cycle;Signal;HPM_P1;HPM_P2
2021/07/03 00:00:27;;;;;;;;;;;;;;;;;;4962252;28;20317;-87
2021/07/03 00:02:52;;;;;;;;;;;;;;;;;;4961440;29;19921;-86
2021/07/03 00:05:18;;;;;;;;;;;;;;;;;;4963006;29;19914;-87
2021/07/03 00:07:43;;;;;;;;;;;;;;;;;;4963284;29;19914;-87
2021/07/03 00:10:08;;;;;;;;;;;;;;;;;;4962474;29;19918;-87
2021/07/03 00:12:34;;;;;;;;;;;;;;;;;;4961868;29;19915;-87
2021/07/03 00:14:59;;;;;;;;;;;;;;;;;;4962040;28;19918;-87
2021/07/03 00:17:24;;;;;;;;;;;;;;;;;;4961494;28;19919;-87
2021/07/03 00:19:49;;;;;;;;;;;;;;;;;;4961786;28;19953;-87
2021/07/03 00:22:14;;;;;;;;;;;;;;;;;;4961520;29;19922;-87
2021/07/03 00:24:40;;;;;;;;;;;;;;;;;;4961414;29;19996;-87
2021/07/03 00:27:05;;;;;;;;;;;;;;;;;;4960861;29;19915;-87
2021/07/03 00:29:30;;;;;;;;;;;;;;;;;;4961793;28;19974;-87
2021/07/03 00:31:55;;;;;;;;;;;;;;;;;;4962258;29;19914;-86
2021/07/03 00:34:20;;;;;;;;;;;;;;;;;;4963216;28;19914;-86
2021/07/03 00:36:46;;;;;;;;;;;;;;;;;;4962295;29;19915;-87
2021/07/03 00:39:11;;;;;;;;;;;;;;;;;;4961877;28;20000;-87
2021/07/03 00:41:36;;;;;;;;;;;;;;;;;;4961254;28;19919;-87
2021/07/03 00:44:01;;;;;;;;;;;;;;;;;;4961932;28;19915;-87
2021/07/03 00:46:27;;;;;;;;;;;;;;;;;;4964974;28;19915;-87
2021/07/03 00:48:52;;;;;;;;;;;;;;;;;;4966260;29;19914;-87
2021/07/03 00:51:17;;;;;;;;;;;;;;;;;;4965484;28;19915;-87
2021/07/03 00:53:42;;;;;;;;;;;;;;;;;;4965600;28;20293;-87
2021/07/03 00:56:09;;;;;;;;;;;;;;;;;;4966064;29;19915;-87
2021/07/03 00:58:34;;;;;;;;;;;;;;;;;;4965946;28;19914;-87
2021/07/03 01:00:59;;;;;;;;;;;;;;;;;;4965865;28;19926;-87
2021/07/03 01:03:24;;;;;;;;;;;;;;;;;;4966822;28;19914;-87
2021/07/03 01:05:50;;;;;;;;;;;;;;;;;;4966223;29;20345;-86
2021/07/03 01:08:15;;;;;;;;;;;;;;;;;;4966134;28;19922;-86
2021/07/03 01:10:40;;;;;;;;;;;;;;;;;;4966057;29;20378;-86
2021/07/03 01:13:05;;;;;;;;;;;;;;;;;;4965399;29;19922;-86
2021/07/03 01:15:31;;;;;;;;;;;;;;;;;;4965430;28;19933;-86
2021/07/03 01:17:56;;;;;;;;;;;;;;;;;;4968526;28;19953;-86
2021/07/03 01:20:21;;;;;;;;;;;;;;;;;;4965434;28;19926;-87
2021/07/03 01:22:47;;;;;;;;;;;;;;;;;;4955393;29;19921;-87
2021/07/03 01:25:12;;;;;;;;;;;;;;;;;;4981206;28;19914;-87
2021/07/03 01:27:38;;;;;;;;;;;;;;;;;;4949327;29;19915;-87
2021/07/03 01:30:04;;;;;;;;;;;;;;;;;;4959494;29;19942;-87
2021/07/03 01:32:29;;;;;;;;;;;;;;;;;;4981042;28;19969;-87
2021/07/03 01:34:55;;;;;;;;;;;;;;;;;;4981617;28;20323;-87
2021/07/03 01:37:20;;;;;;;;;;;;;;;;;;4982216;28;20369;-87
2021/07/03 01:39:45;;;;;;;;;;;;;;;;;;4966393;28;19922;-87
2021/07/03 01:42:10;;;;;;;;;;;;;;;;;;4981501;28;19929;-87
2021/07/03 01:44:35;;;;;;;;;;;;;;;;;;4964635;29;19914;-87
2021/07/03 01:47:01;;;;;;;;;;;;;;;;;;4979675;28;19915;-86
2021/07/03 01:49:26;;;;;;;;;;;;;;;;;;4947690;29;19914;-86
2021/07/03 01:51:52;;;;;;;;;;;;;;;;;;4946269;29;20017;-87
2021/07/03 01:54:17;;;;;;;;;;;;;;;;;;4962543;28;19915;-87
2021/07/03 01:56:42;;;;;;;;;;;;;;;;;;4945965;29;20433;-87
2021/07/03 01:59:08;;;;;;;;;;;;;;;;;;4946399;29;19926;-87
2021/07/03 02:01:33;;;;;;;;;;;;;;;;;;4963376;28;19919;-86
2021/07/03 02:03:59;;;;;;;;;;;;;;;;;;4948727;29;20305;-87
2021/07/03 02:06:24;;;;;;;;;;;;;;;;;;4964334;28;19922;-87
2021/07/03 02:08:49;;;;;;;;;;;;;;;;;;4948095;29;19929;-86
2021/07/03 02:11:15;;;;;;;;;;;;;;;;;;4947837;29;19920;-87
2021/07/03 02:13:40;;;;;;;;;;;;;;;;;;4946496;29;19922;-87
2021/07/03 02:16:05;;;;;;;;;;;;;;;;;;4946804;29;19990;-87
2021/07/03 02:18:30;;;;;;;;;;;;;;;;;;4945387;29;19914;-86
2021/07/03 02:20:55;;;;;;;;;;;;;;;;;;4961741;28;20032;-87
2021/07/03 02:23:21;;;;;;;;;;;;;;;;;;4945808;29;19915;-86
2021/07/03 02:25:46;;;;;;;;;;;;;;;;;;4945107;29;19914;-87
2021/07/03 02:28:14;;;;;;;;;;;;;;;;;;4961142;28;19982;-87
2021/07/03 02:30:40;;;;;;;;;;;;;;;;;;4946090;29;19927;-86
2021/07/03 02:33:05;;;;;;;;;;;;;;;;;;4946880;29;19914;-86
2021/07/03 02:35:30;;;;;;;;;;;;;;;;;;4947197;29;19921;-86
2021/07/03 02:37:55;;;;;;;;;;;;;;;;;;4947508;29;19914;-86
2021/07/03 02:40:21;;;;;;;;;;;;;;;;;;4963115;28;19914;-86
2021/07/03 02:42:46;;;;;;;;;;;;;;;;;;4948530;29;20022;-87
2021/07/03 02:45:12;;;;;;;;;;;;;;;;;;4948163;29;20334;-87
2021/07/03 02:47:37;;;;;;;;;;;;;;;;;;4948338;29;20008;-87
2021/07/03 02:50:04;;;;;;;;;;;;;;;;;;4963190;29;20412;-87
2021/07/03 02:52:29;;;;;;;;;;;;;;;;;;4945492;29;20135;-87
2021/07/03 02:54:54;;;;;;;;;;;;;;;;;;4945810;29;20009;-87
2021/07/03 02:57:19;;;;;;;;;;;;;;;;;;4947516;29;19973;-86
2021/07/03 02:59:44;;;;;;;;;;;;;;;;;;4947063;29;19918;-87
2021/07/03 03:02:09;;;;;;;;;;;;;;;;;;4946161;29;19989;-87
2021/07/03 03:04:35;;;;;;;;;;;;;;;;;;4946764;29;20267;-86
2021/07/03 03:07:01;;;;;;;;;;;;;;;;;;4947761;29;19914;-87
2021/07/03 03:09:26;;;;;;;;;;;;;;;;;;4947551;29;19922;-87
2021/07/03 03:11:52;;;;;;;;;;;;;;;;;;4961429;28;19921;-86
2021/07/03 03:14:17;;;;;;;;;;;;;;;;;;4946365;29;20307;-86
2021/07/03 03:16:42;;;;;;;;;;;;;;;;;;4962164;28;19921;-86
2021/07/03 03:19:07;;;;;;;;;;;;;;;;;;4945809;28;19918;-87
2021/07/03 03:21:32;;;;;;;;;;;;;;;;;;4945354;29;19919;-86
2021/07/03 03:23:58;;;;;;;;;;;;;;;;;;4945855;29;19921;-86
2021/07/03 03:26:23;;;;;;;;;;;;;;;;;;4946094;29;19914;-86
2021/07/03 03:28:48;;;;;;;;;;;;;;;;;;4944948;29;20017;-86
2021/07/03 03:31:13;;;;;;;;;;;;;;;;;;4944140;29;19914;-87
2021/07/03 03:33:38;;;;;;;;;;;;;;;;;;4945019;29;19918;-86
2021/07/03 03:36:04;;;;;;;;;;;;;;;;;;4943773;29;20266;-86
2021/07/03 03:38:29;;;;;;;;;;;;;;;;;;4944953;29;19924;-87
2021/07/03 03:40:54;;;;;;;;;;;;;;;;;;4961351;29;20374;-87
2021/07/03 03:43:19;;;;;;;;;;;;;;;;;;4961033;28;19960;-87
2021/07/03 03:45:45;;;;;;;;;;;;;;;;;;4944707;29;19965;-86
2021/07/03 03:48:10;;;;;;;;;;;;;;;;;;4944572;29;20009;-86
2021/07/03 03:50:35;;;;;;;;;;;;;;;;;;4944590;29;20305;-86
2021/07/03 03:53:01;;;;;;;;;;;;;;;;;;4943685;29;20293;-86
2021/07/03 03:55:26;;;;;;;;;;;;;;;;;;4943650;29;19919;-86
2021/07/03 03:57:51;;;;;;;;;;;;;;;;;;4943076;29;19977;-86
2021/07/03 04:00:20;;;;;;;;;;;;;;;;;;4943043;29;20428;-86
2021/07/03 04:02:45;;;;;;;;;;;;;;;;;;4942480;29;19965;-86
2021/07/03 04:05:10;;;;;;;;;;;;;;;;;;4943150;29;19922;-86
2021/07/03 04:07:35;;;;;;;;;;;;;;;;;;4943610;29;19937;-86
2021/07/03 04:10:01;;;;;;;;;;;;;;;;;;4943747;29;19914;-86
2021/07/03 04:12:27;;;;;;;;;;;;;;;;;;4942561;29;19922;-86
2021/07/03 04:14:52;;;;;;;;;;;;;;;;;;4958166;29;19915;-86
2021/07/03 04:17:17;;;;;;;;;;;;;;;;;;4942471;29;20417;-86
2021/07/03 04:19:42;;;;;;;;;;;;;;;;;;4943518;29;20302;-87
2021/07/03 04:22:08;;;;;;;;;;;;;;;;;;4989265;23;19926;-77
2021/07/03 04:24:33;;;;;;;;;;;;;;;;;;5023955;28;19918;-77
2021/07/03 04:26:58;;;;;;;;;;;;;;;;;;5016355;28;19960;-77
2021/07/03 04:29:23;;;;;;;;;;;;;;;;;;5030824;28;20004;-77
2021/07/03 04:31:49;;;;;;;;;;;;;;;;;;5013203;28;19920;-77
2021/07/03 04:34:14;;;;;;;;;;;;;;;;;;5021173;28;20365;-77
2021/07/03 04:36:39;;;;;;;;;;;;;;;;;;5033066;28;19955;-77
2021/07/03 04:39:04;;;;;;;;;;;;;;;;;;5016154;28;20364;-77
2021/07/03 04:41:29;;;;;;;;;;;;;;;;;;5016029;28;19917;-77
2021/07/03 04:43:55;;;;;;;;;;;;;;;;;;5002023;28;19914;-77
2021/07/03 04:46:20;;;;;;;;;;;;;;;;;;4996564;28;19960;-77
2021/07/03 04:48:45;;;;;;;;;;;;;;;;;;5012834;28;20281;-77
2021/07/03 04:51:10;;;;;;;;;;;;;;;;;;5012808;28;19949;-77
2021/07/03 04:53:36;;;;;;;;;;;;;;;;;;4996385;28;20381;-77
2021/07/03 04:56:01;;;;;;;;;;;;;;;;;;5012692;28;19914;-77
2021/07/03 04:58:26;;;;;;;;;;;;;;;;;;5012963;28;20295;-77
2021/07/03 05:00:51;;;;;;;;;;;;;;;;;;4996146;28;19972;-77
2021/07/03 05:03:16;;;;;;;;;;;;;;;;;;4996139;28;19925;-77
2021/07/03 05:05:42;;;;;;;;;;;;;;;;;;4996075;28;19918;-77
2021/07/03 05:08:07;;;;;;;;;;;;;;;;;;4996024;28;19914;-77
2021/07/03 05:10:32;;;;;;;;;;;;;;;;;;5012522;28;20353;-77
2021/07/03 05:12:57;;;;;;;;;;;;;;;;;;4995912;28;19913;-77
2021/07/03 05:15:23;;;;;;;;;;;;;;;;;;4995901;28;20016;-77
2021/07/03 05:17:48;;;;;;;;;;;;;;;;;;5012389;28;19918;-77
2021/07/03 05:20:14;;;;;;;;;;;;;;;;;;4997525;28;20000;-77
2021/07/03 05:22:40;;;;;;;;;;;;;;;;;;4999699;28;19956;-77
2021/07/03 05:25:05;;;;;;;;;;;;;;;;;;5024650;28;19913;-77
2021/07/03 05:27:30;;;;;;;;;;;;;;;;;;5012307;28;19914;-77
2021/07/03 05:29:55;;;;;;;;;;;;;;;;;;5002870;28;19917;-77
2021/07/03 05:32:21;;;;;;;;;;;;;;;;;;5016173;28;19913;-77
2021/07/03 05:34:46;;;;;;;;;;;;;;;;;;5015157;28;19913;-77
2021/07/03 05:37:11;;;;;;;;;;;;;;;;;;5015012;28;19920;-77
2021/07/03 05:39:36;;;;;;;;;;;;;;;;;;5015087;28;19964;-77
2021/07/03 05:42:02;;;;;;;;;;;;;;;;;;5015429;28;20024;-77
2021/07/03 05:44:27;;;;;;;;;;;;;;;;;;5006092;28;19921;-77
2021/07/03 05:46:52;;;;;;;;;;;;;;;;;;5011804;28;19972;-77
2021/07/03 05:49:17;;;;;;;;;;;;;;;;;;5011705;28;19914;-77
2021/07/03 05:51:43;;;;;;;;;;;;;;;;;;4995382;28;20051;-77
2021/07/03 05:54:08;;;;;;;;;;;;;;;;;;4996514;28;19920;-77
2021/07/03 05:56:33;;;;;;;;;;;;;;;;;;4996617;28;20384;-77
2021/07/03 05:59:01;;;;;;;;;;;;;;;;;;4995580;28;19953;-77
2021/07/03 06:01:26;;;;;;;;;;;;;;;;;;4995085;28;20020;-77
2021/07/03 06:03:51;;;;;;;;;;;;;;;;;;5011606;28;19984;-77
2021/07/03 06:06:17;;;;;;;;;;;;;;;;;;4995461;28;19914;-77
2021/07/03 06:08:42;;;;;;;;;;;;;;;;;;5012491;28;20377;-78
2021/07/03 06:11:07;;;;;;;;;;;;;;;;;;4995042;28;19964;-77
2021/07/03 06:13:32;;;;;;;;;;;;;;;;;;4995076;28;19921;-77
2021/07/03 06:15:57;;;;;;;;;;;;;;;;;;4995102;28;19961;-77
2021/07/03 06:18:23;;;;;;;;;;;;;;;;;;5011711;28;19921;-77
2021/07/03 06:20:48;;;;;;;;;;;;;;;;;;4994933;28;20304;-78
2021/07/03 06:23:13;;;;;;;;;;;;;;;;;;5001883;28;19970;-78
2021/07/03 06:25:38;;;;;;;;;;;;;;;;;;4997664;28;19945;-77
2021/07/03 06:28:04;;;;;;;;;;;;;;;;;;5010874;28;20420;-78
2021/07/03 06:30:29;;;;;;;;;;;;;;;;;;5014659;28;19913;-77
2021/07/03 06:32:54;;;;;;;;;;;;;;;;;;5014473;28;19914;-78
2021/07/03 06:35:19;;;;;;;;;;;;;;;;;;5011803;28;19920;-78
2021/07/03 06:37:44;;;;;;;;;;;;;;;;;;4995363;28;19963;-78
2021/07/03 06:40:10;;;;;;;;;;;;;;;;;;5011870;28;19914;-78
2021/07/03 06:42:35;;;;;;;;;;;;;;;;;;4995367;28;20365;-78
2021/07/03 06:45:00;;;;;;;;;;;;;;;;;;4995047;28;19913;-78
2021/07/03 06:47:26;;;;;;;;;;;;;;;;;;4995091;28;19924;-78
2021/07/03 06:49:51;;;;;;;;;;;;;;;;;;5012247;28;19913;-78
2021/07/03 06:52:16;;;;;;;;;;;;;;;;;;5031413;28;19961;-78
2021/07/03 06:54:41;;;;;;;;;;;;;;;;;;5015878;28;20023;-78
2021/07/03 06:57:08;;;;;;;;;;;;;;;;;;5031060;28;19920;-78
2021/07/03 06:59:33;;;;;;;;;;;;;;;;;;5031003;28;20296;-78
2021/07/03 07:02:04;;;;;;;;;;;;;;;;;;5015788;28;19924;-77
2021/07/03 07:04:29;;;;;;;;;;;;;;;;;;5015707;28;19914;-78
2021/07/03 07:06:55;;;;;;;;;;;;;;;;;;5016753;28;19920;-78
2021/07/03 07:09:21;;;;;;;;;;;;;;;;;;5015882;28;20003;-78
2021/07/03 07:11:46;;;;;;;;;;;;;;;;;;5016027;28;19921;-78
2021/07/03 07:14:11;;;;;;;;;;;;;;;;;;5015859;28;19917;-78
2021/07/03 07:16:36;;;;;;;;;;;;;;;;;;5015616;28;19959;-78
2021/07/03 07:19:01;;;;;;;;;;;;;;;;;;5032543;28;20008;-78
2021/07/03 07:21:27;;;;;;;;;;;;;;;;;;5016919;28;20026;-78
2021/07/03 07:23:52;;;;;;;;;;;;;;;;;;5014234;28;19917;-76
2021/07/03 07:26:17;;;;;;;;;;;;;;;;;;5010105;28;19917;-76
2021/07/03 07:28:42;;;;;;;;;;;;;;;;;;5012420;28;19913;-76
2021/07/03 07:31:08;;;;;;;;;;;;;;;;;;5013471;28;19920;-77
2021/07/03 07:33:33;;;;;;;;;;;;;;;;;;5015100;28;19914;-76
2021/07/03 07:35:58;;;;;;;;;;;;;;;;;;4993409;28;19940;-76
2021/07/03 07:38:23;;;;;;;;;;;;;;;;;;4994412;28;20288;-76
2021/07/03 07:40:48;;;;;;;;;;;;;;;;;;5029401;28;19921;-76
2021/07/03 07:43:14;;;;;;;;;;;;;;;;;;5012838;28;19920;-76
2021/07/03 07:45:39;;;;;;;;;;;;;;;;;;5029439;28;20376;-76
2021/07/03 07:48:04;;;;;;;;;;;;;;;;;;5029264;28;20023;-76
2021/07/03 07:50:30;;;;;;;;;;;;;;;;;;5020266;28;20293;-76
2021/07/03 07:52:55;;;;;;;;;;;;;;;;;;4993130;28;19980;-76
2021/07/03 07:55:20;;;;;;;;;;;;;;;;;;4992315;28;20397;-76
2021/07/03 07:57:45;;;;;;;;;;;;;;;;;;4992991;28;19920;-76
2021/07/03 08:00:11;;;;;;;;;;;;;;;;;;4993130;28;19924;-76
2021/07/03 08:02:36;;;;;;;;;;;;;;;;;;4992952;28;19917;-76
2021/07/03 08:05:01;;;;;;;;;;;;;;;;;;4994468;28;19920;-76
2021/07/03 08:07:26;;;;;;;;;;;;;;;;;;4992864;28;19918;-76
2021/07/03 08:09:52;;;;;;;;;;;;;;;;;;5009790;28;19968;-76
2021/07/03 08:12:17;;;;;;;;;;;;;;;;;;4993018;28;19913;-76
2021/07/03 08:14:42;;;;;;;;;;;;;;;;;;4992883;28;20483;-76
2021/07/03 08:17:07;;;;;;;;;;;;;;;;;;4992769;28;19914;-76
2021/07/03 08:19:32;;;;;;;;;;;;;;;;;;4992853;28;20380;-76
2021/07/03 08:21:58;;;;;;;;;;;;;;;;;;4992822;28;19922;-76
2021/07/03 08:24:26;;;;;;;;;;;;;;;;;;4992886;28;20380;-76
2021/07/03 08:26:51;;;;;;;;;;;;;;;;;;5009547;28;20403;-76
2021/07/03 08:29:17;;;;;;;;;;;;;;;;;;4992796;28;20008;-76
2021/07/03 08:31:42;;;;;;;;;;;;;;;;;;4992693;28;20304;-76
2021/07/03 08:34:07;;;;;;;;;;;;;;;;;;5009368;28;20369;-76
2021/07/03 08:36:32;;;;;;;;;;;;;;;;;;4993929;28;19914;-76
2021/07/03 08:38:58;;;;;;;;;;;;;;;;;;4992656;28;20369;-76
2021/07/03 08:41:23;;;;;;;;;;;;;;;;;;4992652;28;19924;-76
2021/07/03 08:43:49;;;;;;;;;;;;;;;;;;5009208;28;20373;-76
2021/07/03 08:46:17;;;;;;;;;;;;;;;;;;4993017;28;19914;-76
2021/07/03 08:48:43;;;;;;;;;;;;;;;;;;4992404;28;19918;-76
2021/07/03 08:51:08;;;;;;;;;;;;;;;;;;5009005;28;19914;-76
2021/07/03 08:53:33;;;;;;;;;;;;;;;;;;4992875;28;19918;-76
2021/07/03 08:55:59;;;;;;;;;;;;;;;;;;4993461;28;19914;-76
2021/07/03 08:58:24;;;;;;;;;;;;;;;;;;5009174;28;20388;-76
2021/07/03 09:00:49;;;;;;;;;;;;;;;;;;4997839;28;20301;-76
2021/07/03 09:03:18;;;;;;;;;;;;;;;;;;4992561;28;19913;-76
2021/07/03 09:05:54;;;;;;;;;;;;;;;;;;4993834;28;20012;-76
2021/07/03 09:08:20;;;;;;;;;;;;;;;;;;4996805;28;19921;-76
2021/07/03 09:10:45;;;;;;;;;;;;;;;;;;5009407;28;19965;-76
2021/07/03 09:13:10;;;;;;;;;;;;;;;;;;5015575;28;19925;-76
2021/07/03 09:15:42;;;;;;;;;;;;;;;;;;5032175;28;19914;-76
2021/07/03 09:18:08;;;;;;;;;;;;;;;;;;5032155;28;19914;-76
2021/07/03 09:20:38;;;;;;;;;;;;;;;;;;5031912;28;20335;-76
2021/07/03 09:23:07;;;;;;;;;;;;;;;;;;5016593;28;19917;-76
2021/07/03 09:25:33;;;;;;;;;;;;;;;;;;5015349;28;19951;-76
2021/07/03 09:28:03;;;;;;;;;;;;;;;;;;5015294;28;19935;-76
2021/07/03 09:30:28;;;;;;;;;;;;;;;;;;5015460;28;19920;-76
2021/07/03 09:32:53;;;;;;;;;;;;;;;;;;5015262;28;19914;-76
2021/07/03 09:35:19;;;;;;;;;;;;;;;;;;5015299;28;20007;-76
2021/07/03 09:37:44;;;;;;;;;;;;;;;;;;5015097;28;19914;-76
2021/07/03 09:40:09;;;;;;;;;;;;;;;;;;5015269;28;19913;-76
2021/07/03 09:42:35;;;;;;;;;;;;;;;;;;5014996;28;19979;-76
2021/07/03 09:45:00;;;;;;;;;;;;;;;;;;5015026;28;19964;-76
2021/07/03 09:47:27;;;;;;;;;;;;;;;;;;5014899;28;19921;-76
2021/07/03 09:50:04;;;;;;;;;;;;;;;;;;5031408;28;20395;-76
2021/07/03 09:52:30;;;;;;;;;;;;;;;;;;5016927;28;20292;-76
2021/07/03 09:54:55;;;;;;;;;;;;;;;;;;5004800;28;19925;-76
2021/07/03 09:57:22;;;;;;;;;;;;;;;;;;5011789;28;19927;-76
2021/07/03 09:59:47;;;;;;;;;;;;;;;;;;5011452;28;20351;-76
2021/07/03 10:02:12;;;;;;;;;;;;;;;;;;5011451;28;20004;-76
2021/07/03 10:04:37;;;;;;;;;;;;;;;;;;5010664;28;19953;-75
2021/07/03 10:07:06;;;;;;;;;;;;;;;;;;5011456;28;20008;-76
2021/07/03 10:09:41;;;;;;;;;;;;;;;;;;5010971;28;19922;-76
2021/07/03 10:12:08;;;;;;;;;;;;;;;;;;4995070;28;19914;-76
2021/07/03 10:14:40;;;;;;;;;;;;;;;;;;4991404;28;19929;-76
2021/07/03 10:17:05;;;;;;;;;;;;;;;;;;5008103;28;19960;-76
2021/07/03 10:19:37;;;;;;;;;;;;;;;;;;4990659;28;19965;-76
2021/07/03 10:22:12;;;;;;;;;;;;;;;;;;5007095;23;20381;-84
2021/07/03 10:24:52;;;;;;;;;;;;;;;;;;4969815;28;19933;-85
2021/07/03 10:27:17;;;;;;;;;;;;;;;;;;4964544;28;19921;-84
2021/07/03 10:29:43;;;;;;;;;;;;;;;;;;4982447;28;19914;-84
2021/07/03 10:32:17;;;;;;;;;;;;;;;;;;4983035;28;20349;-85
2021/07/03 10:34:42;;;;;;;;;;;;;;;;;;4989841;28;19918;-85
2021/07/03 10:37:07;;;;;;;;;;;;;;;;;;4998408;28;20373;-84
2021/07/03 10:39:33;;;;;;;;;;;;;;;;;;4998221;28;19913;-85
2021/07/03 10:41:58;;;;;;;;;;;;;;;;;;4998621;28;19918;-84
2021/07/03 10:44:23;;;;;;;;;;;;;;;;;;4984967;28;20381;-85
2021/07/03 10:46:48;;;;;;;;;;;;;;;;;;4986442;28;19918;-84
2021/07/03 10:52:42;;;;;;;;;;;;;;;;;;4998434;28;19932;-84
2021/07/03 10:55:32;;;;;;;;;;;;;;;;;;4989959;28;19930;-81
2021/07/03 10:57:57;;;;;;;;;;;;;;;;;;5008230;28;19918;-82
2021/07/03 11:00:23;;;;;;;;;;;;;;;;;;5009863;28;19913;-82
2021/07/03 11:02:48;;;;;;;;;;;;;;;;;;5009234;28;19921;-80
2021/07/03 11:05:14;;;;;;;;;;;;;;;;;;5008630;28;19936;-81
2021/07/03 11:07:39;;;;;;;;;;;;;;;;;;5006566;28;19910;-82
2021/07/03 11:10:04;;;;;;;;;;;;;;;;;;4974935;28;19925;-82
2021/07/03 11:12:30;;;;;;;;;;;;;;;;;;4993052;28;19969;-82
2021/07/03 11:14:56;;;;;;;;;;;;;;;;;;4991602;28;19985;-82
2021/07/03 11:17:25;;;;;;;;;;;;;;;;;;5011515;28;19914;-81
2021/07/03 11:19:51;;;;;;;;;;;;;;;;;;5011974;28;19902;-82
2021/07/03 11:22:17;;;;;;;;;;;;;;;;;;5013922;28;19917;-82
2021/07/03 11:24:47;;;;;;;;;;;;;;;;;;5011256;28;19918;-80
2021/07/03 11:27:31;;;;;;;;;;;;;;;;;;5011278;28;19937;-80
2021/07/03 11:29:57;;;;;;;;;;;;;;;;;;5009733;28;19944;-81
2021/07/03 11:32:22;;;;;;;;;;;;;;;;;;5011338;28;19913;-81
2021/07/03 11:34:55;;;;;;;;;;;;;;;;;;5012901;28;20027;-81
2021/07/03 11:37:33;;;;;;;;;;;;;;;;;;5010677;28;19921;-81
2021/07/03 11:40:00;;;;;;;;;;;;;;;;;;4984755;28;20077;-81
2021/07/03 11:42:26;;;;;;;;;;;;;;;;;;4992199;28;19957;-80
2021/07/03 11:44:51;;;;;;;;;;;;;;;;;;5004674;28;19932;-83
2021/07/03 11:47:17;;;;;;;;;;;;;;;;;;4994898;28;19938;-84
2021/07/03 11:49:46;;;;;;;;;;;;;;;;;;5008128;28;19909;-81
2021/07/03 11:52:12;;;;;;;;;;;;;;;;;;4990499;28;19918;-84
2021/07/03 11:54:37;;;;;;;;;;;;;;;;;;4984687;28;19953;-83
2021/07/03 11:57:02;;;;;;;;;;;;;;;;;;4990274;28;19914;-84
2021/07/03 11:59:27;;;;;;;;;;;;;;;;;;4976569;28;19914;-84
2021/07/03 12:01:53;;;;;;;;;;;;;;;;;;4992753;28;19930;-83
2021/07/03 12:04:18;;;;;;;;;;;;;;;;;;5013578;28;19913;-82
2021/07/03 12:06:43;;;;;;;;;;;;;;;;;;5010382;28;19906;-83
2021/07/03 12:09:12;;;;;;;;;;;;;;;;;;4995587;28;19921;-82
2021/07/03 12:11:38;;;;;;;;;;;;;;;;;;5001357;28;19902;-83
2021/07/03 12:14:03;;;;;;;;;;;;;;;;;;5011807;28;19913;-83
2021/07/03 12:16:29;;;;;;;;;;;;;;;;;;5013086;28;19914;-83
2021/07/03 12:18:55;;;;;;;;;;;;;;;;;;5013390;28;19973;-83
2021/07/03 12:21:24;;;;;;;;;;;;;;;;;;5018801;28;20384;-83
2021/07/03 12:23:58;;;;;;;;;;;;;;;;;;5010925;28;19917;-82
2021/07/03 12:26:24;;;;;;;;;;;;;;;;;;5014639;28;19953;-83
2021/07/03 12:28:57;;;;;;;;;;;;;;;;;;5012484;28;19940;-83
2021/07/03 12:31:23;;;;;;;;;;;;;;;;;;4998623;28;19913;-83
2021/07/03 12:33:48;;;;;;;;;;;;;;;;;;5002403;28;19968;-83
2021/07/03 12:36:19;;;;;;;;;;;;;;;;;;4977419;28;19918;-83
2021/07/03 12:38:45;;;;;;;;;;;;;;;;;;4997729;28;19925;-83
2021/07/03 12:41:10;;;;;;;;;;;;;;;;;;4981375;28;19901;-83
2021/07/03 12:43:35;;;;;;;;;;;;;;;;;;5000527;28;19914;-83
2021/07/03 12:46:02;;;;;;;;;;;;;;;;;;5003013;28;19965;-83
2021/07/03 12:48:37;;;;;;;;;;;;;;;;;;4999899;28;19948;-83
2021/07/03 12:51:02;;;;;;;;;;;;;;;;;;5017435;28;19917;-82
2021/07/03 12:53:33;;;;;;;;;;;;;;;;;;5006912;28;19989;-83
2021/07/03 12:55:58;;;;;;;;;;;;;;;;;;4980145;28;19941;-83
2021/07/03 12:58:24;;;;;;;;;;;;;;;;;;4974459;28;20000;-77
2021/07/03 13:00:50;;;;;;;;;;;;;;;;;;5006937;28;19980;-79
2021/07/03 13:03:15;;;;;;;;;;;;;;;;;;5003803;28;19972;-80
2021/07/03 13:05:41;;;;;;;;;;;;;;;;;;4994874;28;19973;-80
2021/07/03 13:08:06;;;;;;;;;;;;;;;;;;4992167;28;19924;-80
2021/07/03 13:10:31;;;;;;;;;;;;;;;;;;4991519;28;19914;-80
2021/07/03 13:12:58;;;;;;;;;;;;;;;;;;5009929;28;19914;-80
2021/07/03 13:15:23;;;;;;;;;;;;;;;;;;4996382;28;19914;-80
2021/07/03 13:17:48;;;;;;;;;;;;;;;;;;4993818;28;20042;-80
2021/07/03 13:20:14;;;;;;;;;;;;;;;;;;4993529;28;19918;-80
2021/07/03 13:22:39;;;;;;;;;;;;;;;;;;4994055;28;19925;-81
2021/07/03 13:25:04;;;;;;;;;;;;;;;;;;5009566;28;19924;-79
2021/07/03 13:27:29;;;;;;;;;;;;;;;;;;4988393;28;19918;-80
2021/07/03 13:29:55;;;;;;;;;;;;;;;;;;4991155;28;19921;-80
2021/07/03 13:32:20;;;;;;;;;;;;;;;;;;4974564;28;20373;-80
2021/07/03 13:34:45;;;;;;;;;;;;;;;;;;5008064;28;19902;-79
2021/07/03 13:37:10;;;;;;;;;;;;;;;;;;4991154;28;19960;-80
2021/07/03 13:39:35;;;;;;;;;;;;;;;;;;4959269;28;19914;-79
2021/07/03 13:42:01;;;;;;;;;;;;;;;;;;5007329;28;19929;-79
2021/07/03 13:44:26;;;;;;;;;;;;;;;;;;5011396;28;19914;-80
2021/07/03 13:46:51;;;;;;;;;;;;;;;;;;5005895;28;19944;-80
2021/07/03 13:49:16;;;;;;;;;;;;;;;;;;5010802;28;19921;-80
2021/07/03 13:51:42;;;;;;;;;;;;;;;;;;4993361;28;19914;-79
2021/07/03 13:54:07;;;;;;;;;;;;;;;;;;5008316;28;19957;-81
2021/07/03 13:56:32;;;;;;;;;;;;;;;;;;5004194;28;19917;-81
2021/07/03 13:58:57;;;;;;;;;;;;;;;;;;5010287;28;19977;-81
2021/07/03 14:01:22;;;;;;;;;;;;;;;;;;5010948;28;19981;-80
2021/07/03 14:03:48;;;;;;;;;;;;;;;;;;4995400;28;20004;-81
2021/07/03 14:06:13;;;;;;;;;;;;;;;;;;5000842;28;19957;-81
2021/07/03 14:08:40;;;;;;;;;;;;;;;;;;5001800;28;19914;-81
2021/07/03 14:11:05;;;;;;;;;;;;;;;;;;4991912;28;19914;-80
2021/07/03 14:13:30;;;;;;;;;;;;;;;;;;4991789;28;19973;-81
2021/07/03 14:15:56;;;;;;;;;;;;;;;;;;5001179;28;19941;-80
2021/07/03 14:18:21;;;;;;;;;;;;;;;;;;4974398;28;19917;-81
2021/07/03 14:20:46;;;;;;;;;;;;;;;;;;4990891;28;19924;-80
2021/07/03 14:23:11;;;;;;;;;;;;;;;;;;4993660;28;20036;-80
2021/07/03 14:25:37;;;;;;;;;;;;;;;;;;4977203;28;19976;-80
2021/07/03 14:28:02;;;;;;;;;;;;;;;;;;5009297;28;19941;-80
2021/07/03 14:30:27;;;;;;;;;;;;;;;;;;5001398;28;20376;-79
2021/07/03 14:32:53;;;;;;;;;;;;;;;;;;4992134;28;19928;-79
2021/07/03 14:35:18;;;;;;;;;;;;;;;;;;5009758;28;19918;-79
2021/07/03 14:37:44;;;;;;;;;;;;;;;;;;4999934;28;19926;-79
2021/07/03 14:40:09;;;;;;;;;;;;;;;;;;5007922;28;19977;-78
2021/07/03 14:42:34;;;;;;;;;;;;;;;;;;5007268;28;19953;-78
2021/07/03 14:44:59;;;;;;;;;;;;;;;;;;5008538;28;19921;-78
2021/07/03 14:47:25;;;;;;;;;;;;;;;;;;4998340;28;19925;-79
2021/07/03 14:49:50;;;;;;;;;;;;;;;;;;5008520;28;20338;-79
2021/07/03 14:52:16;;;;;;;;;;;;;;;;;;5010327;28;19921;-80
2021/07/03 14:54:41;;;;;;;;;;;;;;;;;;5010874;28;19944;-81
2021/07/03 14:57:06;;;;;;;;;;;;;;;;;;5010059;28;19917;-79
2021/07/03 14:59:31;;;;;;;;;;;;;;;;;;5007443;28;19921;-78
2021/07/03 15:01:57;;;;;;;;;;;;;;;;;;5008224;28;19953;-79
2021/07/03 15:04:23;;;;;;;;;;;;;;;;;;5008130;28;20145;-79
2021/07/03 15:06:48;;;;;;;;;;;;;;;;;;5008428;28;19922;-79
2021/07/03 15:09:13;;;;;;;;;;;;;;;;;;5008623;28;19929;-78
2021/07/03 15:11:38;;;;;;;;;;;;;;;;;;5009127;28;19917;-79
2021/07/03 15:14:03;;;;;;;;;;;;;;;;;;5009159;28;19918;-79
2021/07/03 15:16:29;;;;;;;;;;;;;;;;;;5005338;28;19922;-78
2021/07/03 15:19:03;;;;;;;;;;;;;;;;;;5007086;28;19921;-78
2021/07/03 15:21:28;;;;;;;;;;;;;;;;;;4991462;28;19926;-79
2021/07/03 15:23:54;;;;;;;;;;;;;;;;;;5007733;28;19922;-78
2021/07/03 15:26:19;;;;;;;;;;;;;;;;;;5007134;28;19924;-78
2021/07/03 15:28:46;;;;;;;;;;;;;;;;;;5006779;28;19925;-78
2021/07/03 15:31:11;;;;;;;;;;;;;;;;;;5006951;28;19918;-78
2021/07/03 15:33:37;;;;;;;;;;;;;;;;;;4995051;28;19906;-79
2021/07/03 15:36:03;;;;;;;;;;;;;;;;;;5005370;28;20340;-79
2021/07/03 15:38:28;;;;;;;;;;;;;;;;;;4990001;28;19953;-79
2021/07/03 15:40:53;;;;;;;;;;;;;;;;;;4987828;28;19925;-79
2021/07/03 15:43:34;;;;;;;;;;;;;;;;;;4971838;28;20332;-79
2021/07/03 15:46:00;;;;;;;;;;;;;;;;;;5002143;28;20004;-79
2021/07/03 15:48:25;;;;;;;;;;;;;;;;;;5007910;28;19941;-80
2021/07/03 15:50:50;;;;;;;;;;;;;;;;;;5007679;28;19918;-80
2021/07/03 15:53:16;;;;;;;;;;;;;;;;;;4994614;28;19913;-79
2021/07/03 15:55:42;;;;;;;;;;;;;;;;;;4998502;28;19921;-79
2021/07/03 15:58:07;;;;;;;;;;;;;;;;;;5008123;28;19957;-79
2021/07/03 16:00:32;;;;;;;;;;;;;;;;;;5000022;28;19976;-79
2021/07/03 16:02:57;;;;;;;;;;;;;;;;;;4989357;28;19918;-79
2021/07/03 16:05:23;;;;;;;;;;;;;;;;;;5008029;28;20281;-79
2021/07/03 16:07:49;;;;;;;;;;;;;;;;;;5008816;28;19914;-79
2021/07/03 16:10:14;;;;;;;;;;;;;;;;;;4996222;28;19960;-79
2021/07/03 16:12:40;;;;;;;;;;;;;;;;;;4980842;28;19918;-79
2021/07/03 16:15:05;;;;;;;;;;;;;;;;;;5006402;28;19924;-78
2021/07/03 16:17:32;;;;;;;;;;;;;;;;;;4991412;28;19925;-79
2021/07/03 16:19:57;;;;;;;;;;;;;;;;;;4990356;28;19946;-79
2021/07/03 16:22:24;;;;;;;;;;;;;;;;;;5007976;28;19922;-81
2021/07/03 16:24:49;;;;;;;;;;;;;;;;;;4991763;28;19926;-79
2021/07/03 16:27:14;;;;;;;;;;;;;;;;;;4991481;28;19997;-79
2021/07/03 16:29:39;;;;;;;;;;;;;;;;;;4993980;28;19992;-78
2021/07/03 16:32:05;;;;;;;;;;;;;;;;;;5008084;28;19925;-80
2021/07/03 16:34:30;;;;;;;;;;;;;;;;;;4995245;28;20013;-78
2021/07/03 16:36:55;;;;;;;;;;;;;;;;;;5006314;28;19940;-79
2021/07/03 16:39:21;;;;;;;;;;;;;;;;;;5004202;28;19929;-79